sensor_id;sensor_type;location;lat;lon;timestamp;pressure;altitude;pressure_sealevel;temperature;humidity
59519;BME280;46994;54.976;73.404;2022-08-27T00:00:17;100429.66;;;16.25;74.90
59519;BME280;46994;54.976;73.404;2022-08-27T00:02:45;100413.00;;;16.08;75.56
59519;BME280;46994;54.976;73.404;2022-08-27T00:05:13;100434.00;;;16.26;75.32
59519;BME280;46994;54.976;73.404;2022-08-27T00:07:57;100441.69;;;16.29;76.00
59519;BME280;46994;54.976;73.404;2022-08-27T00:11:34;100422.19;;;16.14;75.82
59519;BME280;46994;54.976;73.404;2022-08-27T00:14:03;100439.63;;;16.18;76.12
59519;BME280;46994;54.976;73.404;2022-08-27T00:16:30;100407.00;;;15.93;77.01
59519;BME280;46994;54.976;73.404;2022-08-27T00:18:57;100417.19;;;16.04;76.17
59519;BME280;46994;54.976;73.404;2022-08-27T00:21:24;100438.38;;;16.27;76.51
59519;BME280;46994;54.976;73.404;2022-08-27T00:23:52;100438.78;;;16.30;76.38
59519;BME280;46994;54.976;73.404;2022-08-27T00:26:19;100423.00;;;16.14;76.51
59519;BME280;46994;54.976;73.404;2022-08-27T00:28:45;100438.16;;;16.28;76.32
59519;BME280;46994;54.976;73.404;2022-08-27T00:31:13;100455.84;;;16.31;76.98
59519;BME280;46994;54.976;73.404;2022-08-27T00:33:40;100460.63;;;16.29;77.11
59519;BME280;46994;54.976;73.404;2022-08-27T00:36:07;100465.22;;;16.28;76.98
59519;BME280;46994;54.976;73.404;2022-08-27T00:38:35;100443.78;;;16.07;77.58
59519;BME280;46994;54.976;73.404;2022-08-27T00:41:05;100454.41;;;16.15;76.99
59519;BME280;46994;54.976;73.404;2022-08-27T00:43:47;100440.44;;;16.12;77.23
59519;BME280;46994;54.976;73.404;2022-08-27T00:48:59;100460.00;;;16.40;76.44
59519;BME280;46994;54.976;73.404;2022-08-27T00:51:28;100445.25;;;16.36;75.68
59519;BME280;46994;54.976;73.404;2022-08-27T00:53:57;100471.44;;;16.55;76.47
59519;BME280;46994;54.976;73.404;2022-08-27T00:56:28;100439.84;;;16.43;76.78
59519;BME280;46994;54.976;73.404;2022-08-27T00:58:57;100485.16;;;16.60;76.89
59519;BME280;46994;54.976;73.404;2022-08-27T01:01:27;100457.06;;;16.42;77.26
59519;BME280;46994;54.976;73.404;2022-08-27T01:03:58;100476.03;;;16.48;77.23
59519;BME280;46994;54.976;73.404;2022-08-27T01:06:31;100477.06;;;16.54;76.47
59519;BME280;46994;54.976;73.404;2022-08-27T01:09:05;100473.72;;;16.65;74.94
59519;BME280;46994;54.976;73.404;2022-08-27T01:11:33;100436.69;;;16.46;75.54
59519;BME280;46994;54.976;73.404;2022-08-27T01:14:01;100486.03;;;16.74;76.01
59519;BME280;46994;54.976;73.404;2022-08-27T01:16:41;100457.03;;;16.61;73.60
59519;BME280;46994;54.976;73.404;2022-08-27T01:19:41;100489.94;;;16.91;74.73
59519;BME280;46994;54.976;73.404;2022-08-27T01:24:47;100500.94;;;17.03;74.31
59519;BME280;46994;54.976;73.404;2022-08-27T01:27:18;100482.44;;;16.87;74.76
59519;BME280;46994;54.976;73.404;2022-08-27T01:29:46;100492.88;;;16.77;74.92
59519;BME280;46994;54.976;73.404;2022-08-27T01:32:20;100518.47;;;16.87;75.08
59519;BME280;46994;54.976;73.404;2022-08-27T01:34:47;100510.78;;;16.78;75.12
59519;BME280;46994;54.976;73.404;2022-08-27T01:37:15;100492.88;;;16.63;74.71
59519;BME280;46994;54.976;73.404;2022-08-27T01:39:42;100538.47;;;16.80;74.89
59519;BME280;46994;54.976;73.404;2022-08-27T01:42:22;100502.25;;;16.54;74.56
59519;BME280;46994;54.976;73.404;2022-08-27T01:44:53;100524.53;;;16.63;74.29
59519;BME280;46994;54.976;73.404;2022-08-27T01:47:23;100543.88;;;16.67;73.39
59519;BME280;46994;54.976;73.404;2022-08-27T01:49:50;100528.88;;;16.57;71.86
59519;BME280;46994;54.976;73.404;2022-08-27T01:52:18;100548.06;;;16.69;69.41
59519;BME280;46994;54.976;73.404;2022-08-27T01:54:47;100530.53;;;16.58;68.83
59519;BME280;46994;54.976;73.404;2022-08-27T01:57:14;100553.25;;;16.71;67.77
59519;BME280;46994;54.976;73.404;2022-08-27T01:59:41;100547.41;;;16.60;67.30
59519;BME280;46994;54.976;73.404;2022-08-27T02:02:08;100526.81;;;16.46;67.61
59519;BME280;46994;54.976;73.404;2022-08-27T02:04:36;100553.47;;;16.62;68.38
59519;BME280;46994;54.976;73.404;2022-08-27T02:07:04;100547.00;;;16.57;69.03
59519;BME280;46994;54.976;73.404;2022-08-27T02:09:30;100528.69;;;16.46;68.89
59519;BME280;46994;54.976;73.404;2022-08-27T02:11:58;100563.63;;;16.60;69.06
59519;BME280;46994;54.976;73.404;2022-08-27T02:14:29;100533.25;;;16.32;68.75
59519;BME280;46994;54.976;73.404;2022-08-27T02:16:56;100572.81;;;16.53;68.84
59519;BME280;46994;54.976;73.404;2022-08-27T02:19:23;100580.28;;;16.57;68.49
59519;BME280;46994;54.976;73.404;2022-08-27T02:21:50;100555.09;;;16.37;68.08
59519;BME280;46994;54.976;73.404;2022-08-27T02:24:16;100595.69;;;16.50;68.35
59519;BME280;46994;54.976;73.404;2022-08-27T02:26:43;100594.22;;;16.41;68.91
59519;BME280;46994;54.976;73.404;2022-08-27T02:29:11;100624.38;;;16.31;68.38
59519;BME280;46994;54.976;73.404;2022-08-27T02:31:37;100574.81;;;16.04;68.58
59519;BME280;46994;54.976;73.404;2022-08-27T02:34:06;100579.53;;;15.83;69.04
59519;BME280;46994;54.976;73.404;2022-08-27T02:36:35;100586.19;;;15.80;68.78
59519;BME280;46994;54.976;73.404;2022-08-27T02:39:04;100623.44;;;15.91;68.80
59519;BME280;46994;54.976;73.404;2022-08-27T02:41:31;100582.13;;;15.56;68.99
59519;BME280;46994;54.976;73.404;2022-08-27T02:43:58;100623.44;;;15.85;68.83
59519;BME280;46994;54.976;73.404;2022-08-27T02:46:24;100615.03;;;15.73;68.32
59519;BME280;46994;54.976;73.404;2022-08-27T02:48:52;100628.97;;;15.70;68.65
59519;BME280;46994;54.976;73.404;2022-08-27T02:51:18;100619.59;;;15.66;68.50
59519;BME280;46994;54.976;73.404;2022-08-27T02:53:45;100615.78;;;15.54;68.32
59519;BME280;46994;54.976;73.404;2022-08-27T02:56:12;100613.66;;;15.49;67.98
59519;BME280;46994;54.976;73.404;2022-08-27T02:58:39;100619.97;;;15.63;67.59
59519;BME280;46994;54.976;73.404;2022-08-27T03:01:06;100628.34;;;15.68;67.35
59519;BME280;46994;54.976;73.404;2022-08-27T03:03:33;100673.38;;;15.95;68.77
59519;BME280;46994;54.976;73.404;2022-08-27T03:06:00;100645.78;;;16.13;66.65
59519;BME280;46994;54.976;73.404;2022-08-27T03:08:27;100633.13;;;16.27;67.33
59519;BME280;46994;54.976;73.404;2022-08-27T03:10:55;100664.78;;;16.46;65.42
59519;BME280;46994;54.976;73.404;2022-08-27T03:13:22;100642.69;;;16.23;66.01
59519;BME280;46994;54.976;73.404;2022-08-27T03:15:52;100647.06;;;16.30;66.16
59519;BME280;46994;54.976;73.404;2022-08-27T03:18:19;100667.69;;;16.45;65.01
59519;BME280;46994;54.976;73.404;2022-08-27T03:20:52;100645.16;;;16.18;63.48
59519;BME280;46994;54.976;73.404;2022-08-27T03:23:22;100665.75;;;16.19;64.04
59519;BME280;46994;54.976;73.404;2022-08-27T03:25:53;100656.38;;;16.21;64.43
59519;BME280;46994;54.976;73.404;2022-08-27T03:28:23;100652.66;;;16.16;64.26
59519;BME280;46994;54.976;73.404;2022-08-27T03:30:57;100684.84;;;16.04;64.02
59519;BME280;46994;54.976;73.404;2022-08-27T03:33:25;100643.81;;;15.87;63.40
59519;BME280;46994;54.976;73.404;2022-08-27T03:35:53;100674.97;;;15.83;63.58
59519;BME280;46994;54.976;73.404;2022-08-27T03:38:20;100642.25;;;15.65;64.15
59519;BME280;46994;54.976;73.404;2022-08-27T03:40:47;100655.34;;;15.68;64.24
59519;BME280;46994;54.976;73.404;2022-08-27T03:43:15;100645.53;;;15.60;63.94
59519;BME280;46994;54.976;73.404;2022-08-27T03:45:42;100638.56;;;15.44;64.34
59519;BME280;46994;54.976;73.404;2022-08-27T03:48:10;100665.25;;;15.26;65.40
59519;BME280;46994;54.976;73.404;2022-08-27T03:50:39;100668.69;;;15.13;66.00
59519;BME280;46994;54.976;73.404;2022-08-27T03:53:07;100660.34;;;15.08;66.30
59519;BME280;46994;54.976;73.404;2022-08-27T03:55:34;100678.34;;;15.29;66.67
59519;BME280;46994;54.976;73.404;2022-08-27T03:58:01;100646.22;;;15.06;66.41
59519;BME280;46994;54.976;73.404;2022-08-27T04:00:27;100656.34;;;15.04;66.50
59519;BME280;46994;54.976;73.404;2022-08-27T04:02:54;100691.66;;;15.31;66.03
59519;BME280;46994;54.976;73.404;2022-08-27T04:05:22;100666.28;;;15.25;64.94
59519;BME280;46994;54.976;73.404;2022-08-27T04:07:49;100692.00;;;15.49;65.34
59519;BME280;46994;54.976;73.404;2022-08-27T04:10:16;100668.56;;;15.56;65.30
59519;BME280;46994;54.976;73.404;2022-08-27T04:12:43;100665.38;;;15.74;64.02
59519;BME280;46994;54.976;73.404;2022-08-27T04:15:11;100680.38;;;15.83;62.99
59519;BME280;46994;54.976;73.404;2022-08-27T04:17:38;100682.06;;;15.91;64.17
59519;BME280;46994;54.976;73.404;2022-08-27T04:20:08;100679.59;;;15.96;62.73
59519;BME280;46994;54.976;73.404;2022-08-27T04:22:35;100707.31;;;16.11;61.68
59519;BME280;46994;54.976;73.404;2022-08-27T04:25:02;100668.28;;;15.79;61.92
59519;BME280;46994;54.976;73.404;2022-08-27T04:27:29;100683.84;;;15.70;61.48
59519;BME280;46994;54.976;73.404;2022-08-27T04:29:58;100674.00;;;15.63;63.53
59519;BME280;46994;54.976;73.404;2022-08-27T04:32:27;100682.22;;;15.76;63.21
59519;BME280;46994;54.976;73.404;2022-08-27T04:34:58;100665.06;;;15.62;62.06
59519;BME280;46994;54.976;73.404;2022-08-27T04:37:28;100659.34;;;15.44;61.67
59519;BME280;46994;54.976;73.404;2022-08-27T04:39:55;100687.84;;;15.53;62.34
59519;BME280;46994;54.976;73.404;2022-08-27T04:42:21;100721.25;;;15.67;60.81
59519;BME280;46994;54.976;73.404;2022-08-27T04:44:48;100698.09;;;15.58;60.60
59519;BME280;46994;54.976;73.404;2022-08-27T04:47:15;100699.53;;;15.54;60.59
59519;BME280;46994;54.976;73.404;2022-08-27T04:49:42;100690.53;;;15.46;59.96
59519;BME280;46994;54.976;73.404;2022-08-27T04:52:09;100704.13;;;15.60;60.05
59519;BME280;46994;54.976;73.404;2022-08-27T04:54:36;100699.84;;;15.65;59.06
59519;BME280;46994;54.976;73.404;2022-08-27T04:57:06;100727.34;;;15.82;58.50
59519;BME280;46994;54.976;73.404;2022-08-27T04:59:34;100697.97;;;15.66;57.05
59519;BME280;46994;54.976;73.404;2022-08-27T05:02:03;100716.63;;;15.95;57.35
59519;BME280;46994;54.976;73.404;2022-08-27T05:04:32;100709.44;;;16.16;58.74
59519;BME280;46994;54.976;73.404;2022-08-27T05:06:59;100710.09;;;16.31;57.05
59519;BME280;46994;54.976;73.404;2022-08-27T05:09:26;100693.00;;;16.17;56.14
59519;BME280;46994;54.976;73.404;2022-08-27T05:11:53;100723.63;;;16.31;56.22
59519;BME280;46994;54.976;73.404;2022-08-27T05:14:22;100705.75;;;16.37;56.50
59519;BME280;46994;54.976;73.404;2022-08-27T05:16:50;100719.38;;;16.70;56.27
59519;BME280;46994;54.976;73.404;2022-08-27T05:19:17;100703.16;;;16.70;53.02
59519;BME280;46994;54.976;73.404;2022-08-27T05:21:48;100708.19;;;16.73;52.50
59519;BME280;46994;54.976;73.404;2022-08-27T05:24:16;100706.09;;;16.75;50.64
59519;BME280;46994;54.976;73.404;2022-08-27T05:26:44;100713.19;;;16.82;50.20
59519;BME280;46994;54.976;73.404;2022-08-27T05:29:11;100731.50;;;16.87;50.50
59519;BME280;46994;54.976;73.404;2022-08-27T05:31:39;100724.22;;;16.74;55.73
59519;BME280;46994;54.976;73.404;2022-08-27T05:34:07;100706.91;;;16.69;52.21
59519;BME280;46994;54.976;73.404;2022-08-27T05:36:35;100737.78;;;16.94;51.80
59519;BME280;46994;54.976;73.404;2022-08-27T05:39:03;100747.53;;;16.88;52.94
59519;BME280;46994;54.976;73.404;2022-08-27T05:41:32;100729.88;;;16.92;50.64
59519;BME280;46994;54.976;73.404;2022-08-27T05:44:02;100718.78;;;16.81;51.13
59519;BME280;46994;54.976;73.404;2022-08-27T05:46:30;100729.22;;;16.84;51.20
59519;BME280;46994;54.976;73.404;2022-08-27T05:48:58;100741.53;;;16.93;52.08
59519;BME280;46994;54.976;73.404;2022-08-27T05:51:30;100749.00;;;16.91;51.09
59519;BME280;46994;54.976;73.404;2022-08-27T05:54:06;100732.75;;;16.78;53.35
59519;BME280;46994;54.976;73.404;2022-08-27T05:56:35;100712.50;;;16.67;50.72
59519;BME280;46994;54.976;73.404;2022-08-27T05:59:03;100733.81;;;16.83;50.76
59519;BME280;46994;54.976;73.404;2022-08-27T06:01:51;100736.09;;;16.86;52.72
59519;BME280;46994;54.976;73.404;2022-08-27T06:04:19;100759.03;;;17.10;50.86
59519;BME280;46994;54.976;73.404;2022-08-27T06:06:47;100734.66;;;16.97;50.17
59519;BME280;46994;54.976;73.404;2022-08-27T06:09:17;100731.75;;;17.12;48.85
59519;BME280;46994;54.976;73.404;2022-08-27T06:11:44;100749.25;;;17.29;49.33
59519;BME280;46994;54.976;73.404;2022-08-27T06:14:11;100734.06;;;17.22;48.82
59519;BME280;46994;54.976;73.404;2022-08-27T06:16:39;100757.16;;;17.44;49.09
59519;BME280;46994;54.976;73.404;2022-08-27T06:19:07;100761.56;;;17.52;48.33
59519;BME280;46994;54.976;73.404;2022-08-27T06:21:34;100741.53;;;17.53;48.25
59519;BME280;46994;54.976;73.404;2022-08-27T06:24:01;100753.19;;;17.80;49.36
59519;BME280;46994;54.976;73.404;2022-08-27T06:26:29;100743.19;;;17.80;48.13
59519;BME280;46994;54.976;73.404;2022-08-27T06:28:56;100722.94;;;17.83;46.75
59519;BME280;46994;54.976;73.404;2022-08-27T06:31:26;100758.16;;;18.02;47.30
59519;BME280;46994;54.976;73.404;2022-08-27T06:33:58;100761.47;;;18.11;45.90
59519;BME280;46994;54.976;73.404;2022-08-27T06:36:26;100762.91;;;18.07;45.19
59519;BME280;46994;54.976;73.404;2022-08-27T06:38:55;100745.47;;;17.90;43.47
59519;BME280;46994;54.976;73.404;2022-08-27T06:41:24;100741.75;;;17.71;43.31
59519;BME280;46994;54.976;73.404;2022-08-27T06:43:53;100731.31;;;17.61;43.68
59519;BME280;46994;54.976;73.404;2022-08-27T06:46:22;100723.78;;;17.63;43.67
59519;BME280;46994;54.976;73.404;2022-08-27T06:48:52;100763.16;;;17.99;44.36
59519;BME280;46994;54.976;73.404;2022-08-27T06:51:22;100758.94;;;18.16;45.69
59519;BME280;46994;54.976;73.404;2022-08-27T06:53:54;100740.09;;;18.28;45.07
59519;BME280;46994;54.976;73.404;2022-08-27T06:56:22;100739.47;;;18.32;43.74
59519;BME280;46994;54.976;73.404;2022-08-27T06:58:53;100724.47;;;18.30;42.47
59519;BME280;46994;54.976;73.404;2022-08-27T07:01:23;100760.50;;;18.44;47.62
59519;BME280;46994;54.976;73.404;2022-08-27T07:03:53;100752.13;;;18.45;44.66
59519;BME280;46994;54.976;73.404;2022-08-27T07:06:20;100738.63;;;18.32;44.05
59519;BME280;46994;54.976;73.404;2022-08-27T07:08:48;100727.41;;;18.15;42.61
59519;BME280;46994;54.976;73.404;2022-08-27T07:11:14;100747.09;;;18.04;42.77
59519;BME280;46994;54.976;73.404;2022-08-27T07:13:41;100764.84;;;18.00;41.77
59519;BME280;46994;54.976;73.404;2022-08-27T07:16:18;100739.59;;;17.93;42.77
59519;BME280;46994;54.976;73.404;2022-08-27T07:18:46;100749.13;;;18.15;43.10
59519;BME280;46994;54.976;73.404;2022-08-27T07:21:14;100750.63;;;18.11;43.23
59519;BME280;46994;54.976;73.404;2022-08-27T07:23:41;100756.03;;;18.11;42.23
59519;BME280;46994;54.976;73.404;2022-08-27T07:26:09;100759.31;;;18.26;41.37
59519;BME280;46994;54.976;73.404;2022-08-27T07:28:37;100746.56;;;18.33;41.21
59519;BME280;46994;54.976;73.404;2022-08-27T07:31:06;100772.31;;;18.56;40.67
59519;BME280;46994;54.976;73.404;2022-08-27T07:33:38;100750.69;;;18.43;40.48
59519;BME280;46994;54.976;73.404;2022-08-27T07:36:06;100773.59;;;18.60;39.53
59519;BME280;46994;54.976;73.404;2022-08-27T07:38:34;100763.72;;;18.72;42.10
59519;BME280;46994;54.976;73.404;2022-08-27T07:41:08;100727.41;;;18.67;39.72
59519;BME280;46994;54.976;73.404;2022-08-27T07:43:35;100761.38;;;18.82;43.02
59519;BME280;46994;54.976;73.404;2022-08-27T07:46:21;100771.97;;;18.90;41.75
59519;BME280;46994;54.976;73.404;2022-08-27T07:48:49;100739.72;;;18.62;41.39
59519;BME280;46994;54.976;73.404;2022-08-27T07:51:19;100759.19;;;18.53;41.68
59519;BME280;46994;54.976;73.404;2022-08-27T07:53:47;100760.25;;;18.52;41.99
59519;BME280;46994;54.976;73.404;2022-08-27T07:56:14;100766.88;;;18.69;42.62
59519;BME280;46994;54.976;73.404;2022-08-27T07:58:41;100753.81;;;18.84;42.07
59519;BME280;46994;54.976;73.404;2022-08-27T08:01:08;100746.50;;;18.85;40.70
59519;BME280;46994;54.976;73.404;2022-08-27T08:03:35;100755.81;;;19.02;38.62
59519;BME280;46994;54.976;73.404;2022-08-27T08:06:04;100756.16;;;19.12;42.91
59519;BME280;46994;54.976;73.404;2022-08-27T08:08:33;100750.50;;;19.14;39.18
59519;BME280;46994;54.976;73.404;2022-08-27T08:11:01;100754.09;;;19.33;38.75
59519;BME280;46994;54.976;73.404;2022-08-27T08:13:30;100739.13;;;19.24;38.47
59519;BME280;46994;54.976;73.404;2022-08-27T08:15:57;100750.50;;;19.39;38.32
59519;BME280;46994;54.976;73.404;2022-08-27T08:18:25;100731.91;;;19.36;37.12
59519;BME280;46994;54.976;73.404;2022-08-27T08:20:52;100740.28;;;19.34;36.75
59519;BME280;46994;54.976;73.404;2022-08-27T08:23:19;100731.47;;;19.39;37.66
59519;BME280;46994;54.976;73.404;2022-08-27T08:25:46;100732.41;;;19.51;37.81
59519;BME280;46994;54.976;73.404;2022-08-27T08:28:12;100750.69;;;19.69;38.54
59519;BME280;46994;54.976;73.404;2022-08-27T08:30:42;100729.97;;;19.68;39.61
59519;BME280;46994;54.976;73.404;2022-08-27T08:33:09;100725.44;;;19.62;38.94
59519;BME280;46994;54.976;73.404;2022-08-27T08:35:39;100731.88;;;19.67;38.67
59519;BME280;46994;54.976;73.404;2022-08-27T08:38:06;100742.44;;;19.75;36.88
59519;BME280;46994;54.976;73.404;2022-08-27T08:40:56;100745.56;;;19.79;38.05
59519;BME280;46994;54.976;73.404;2022-08-27T08:43:42;100749.09;;;19.80;37.38
59519;BME280;46994;54.976;73.404;2022-08-27T08:46:39;100737.31;;;19.67;36.44
59519;BME280;46994;54.976;73.404;2022-08-27T08:52:06;100753.41;;;19.69;35.02
59519;BME280;46994;54.976;73.404;2022-08-27T08:54:34;100730.50;;;19.52;35.92
59519;BME280;46994;54.976;73.404;2022-08-27T08:57:05;100693.69;;;19.31;35.56
59519;BME280;46994;54.976;73.404;2022-08-27T08:59:43;100759.56;;;19.76;36.91
59519;BME280;46994;54.976;73.404;2022-08-27T09:02:13;100751.28;;;19.71;35.62
59519;BME280;46994;54.976;73.404;2022-08-27T09:04:41;100736.16;;;19.57;37.87
59519;BME280;46994;54.976;73.404;2022-08-27T09:07:28;100749.75;;;19.75;37.75
59519;BME280;46994;54.976;73.404;2022-08-27T09:12:45;100727.88;;;19.70;38.07
59519;BME280;46994;54.976;73.404;2022-08-27T09:15:15;100755.22;;;19.93;37.47
59519;BME280;46994;54.976;73.404;2022-08-27T09:17:44;100722.88;;;19.85;37.56
59519;BME280;46994;54.976;73.404;2022-08-27T09:20:14;100679.44;;;19.60;36.54
59519;BME280;46994;54.976;73.404;2022-08-27T09:22:49;100757.13;;;20.11;37.87
59519;BME280;46994;54.976;73.404;2022-08-27T09:25:29;100756.00;;;20.19;37.97
59519;BME280;46994;54.976;73.404;2022-08-27T09:28:00;100739.97;;;20.11;37.17
59519;BME280;46994;54.976;73.404;2022-08-27T09:30:30;100763.75;;;20.15;36.31
59519;BME280;46994;54.976;73.404;2022-08-27T09:33:02;100742.44;;;20.12;38.81
59519;BME280;46994;54.976;73.404;2022-08-27T09:35:41;100753.84;;;20.39;37.70
59519;BME280;46994;54.976;73.404;2022-08-27T09:38:10;100758.19;;;20.47;37.68
59519;BME280;46994;54.976;73.404;2022-08-27T09:40:49;100759.03;;;20.47;36.27
59519;BME280;46994;54.976;73.404;2022-08-27T09:43:25;100737.59;;;20.32;36.52
59519;BME280;46994;54.976;73.404;2022-08-27T09:45:59;100756.75;;;20.26;35.51
59519;BME280;46994;54.976;73.404;2022-08-27T09:48:29;100770.78;;;20.23;35.69
59519;BME280;46994;54.976;73.404;2022-08-27T09:50:59;100774.13;;;20.25;36.76
59519;BME280;46994;54.976;73.404;2022-08-27T09:53:32;100769.97;;;20.22;36.76
59519;BME280;46994;54.976;73.404;2022-08-27T09:56:03;100780.84;;;20.22;36.68
59519;BME280;46994;54.976;73.404;2022-08-27T10:01:18;100791.50;;;20.05;36.26
59519;BME280;46994;54.976;73.404;2022-08-27T10:03:45;100772.06;;;19.84;36.40
59519;BME280;46994;54.976;73.404;2022-08-27T10:06:12;100748.56;;;19.71;37.72
59519;BME280;46994;54.976;73.404;2022-08-27T10:08:46;100779.25;;;19.78;37.67
59519;BME280;46994;54.976;73.404;2022-08-27T10:11:21;100771.06;;;19.60;40.48
59519;BME280;46994;54.976;73.404;2022-08-27T10:14:15;100783.59;;;19.61;38.96
59519;BME280;46994;54.976;73.404;2022-08-27T10:16:49;100793.50;;;19.48;41.25
59519;BME280;46994;54.976;73.404;2022-08-27T10:30:42;100807.16;;;19.10;39.50
59519;BME280;46994;54.976;73.404;2022-08-27T10:42:26;100825.16;;;18.60;39.92
59519;BME280;46994;54.976;73.404;2022-08-27T10:45:09;100809.38;;;18.37;40.67
59519;BME280;46994;54.976;73.404;2022-08-27T10:48:03;100808.38;;;18.25;43.10
59519;BME280;46994;54.976;73.404;2022-08-27T10:50:34;100813.97;;;18.37;43.31
59519;BME280;46994;54.976;73.404;2022-08-27T10:53:16;100813.78;;;18.31;41.80
59519;BME280;46994;54.976;73.404;2022-08-27T10:55:50;100819.84;;;18.27;41.82
59519;BME280;46994;54.976;73.404;2022-08-27T11:03:38;100807.34;;;18.19;42.52
59519;BME280;46994;54.976;73.404;2022-08-27T11:06:37;100821.09;;;18.24;42.48
59519;BME280;46994;54.976;73.404;2022-08-27T11:09:16;100793.81;;;18.06;44.44
59519;BME280;46994;54.976;73.404;2022-08-27T11:11:48;100792.97;;;18.05;42.25
59519;BME280;46994;54.976;73.404;2022-08-27T11:14:33;100805.69;;;18.12;41.72
59519;BME280;46994;54.976;73.404;2022-08-27T11:17:22;100819.44;;;18.17;42.99
59519;BME280;46994;54.976;73.404;2022-08-27T11:22:33;100789.88;;;18.02;43.47
59519;BME280;46994;54.976;73.404;2022-08-27T11:25:08;100810.69;;;18.08;42.08
59519;BME280;46994;54.976;73.404;2022-08-27T11:27:38;100804.47;;;17.94;42.00
59519;BME280;46994;54.976;73.404;2022-08-27T11:30:25;100836.59;;;17.97;43.27
59519;BME280;46994;54.976;73.404;2022-08-27T11:33:15;100842.22;;;17.96;45.63
59519;BME280;46994;54.976;73.404;2022-08-27T11:38:35;100853.72;;;17.91;43.09
59519;BME280;46994;54.976;73.404;2022-08-27T11:41:33;100849.94;;;17.99;43.56
59519;BME280;46994;54.976;73.404;2022-08-27T11:44:05;100831.59;;;17.88;42.86
59519;BME280;46994;54.976;73.404;2022-08-27T11:46:45;100854.34;;;17.93;41.69
59519;BME280;46994;54.976;73.404;2022-08-27T11:49:28;100843.72;;;17.92;41.88
59519;BME280;46994;54.976;73.404;2022-08-27T11:52:02;100834.97;;;17.70;42.00
59519;BME280;46994;54.976;73.404;2022-08-27T11:54:43;100837.22;;;17.66;42.21
59519;BME280;46994;54.976;73.404;2022-08-27T11:57:32;100851.38;;;17.68;42.94
59519;BME280;46994;54.976;73.404;2022-08-27T12:02:43;100866.63;;;17.69;42.34
59519;BME280;46994;54.976;73.404;2022-08-27T12:08:28;100861.63;;;17.66;43.06
59519;BME280;46994;54.976;73.404;2022-08-27T12:14:13;100848.69;;;17.55;43.41
59519;BME280;46994;54.976;73.404;2022-08-27T12:19:51;100864.31;;;17.60;43.97
59519;BME280;46994;54.976;73.404;2022-08-27T12:25:26;100843.03;;;17.37;44.52
59519;BME280;46994;54.976;73.404;2022-08-27T12:28:03;100848.25;;;17.38;44.60
59519;BME280;46994;54.976;73.404;2022-08-27T12:33:30;100859.50;;;17.48;45.38
59519;BME280;46994;54.976;73.404;2022-08-27T12:36:11;100859.28;;;17.50;45.57
59519;BME280;46994;54.976;73.404;2022-08-27T12:38:49;100847.03;;;17.41;45.32
59519;BME280;46994;54.976;73.404;2022-08-27T12:41:33;100877.88;;;17.53;45.46
59519;BME280;46994;54.976;73.404;2022-08-27T12:44:09;100845.75;;;17.37;45.37
59519;BME280;46994;54.976;73.404;2022-08-27T12:46:48;100865.78;;;17.42;44.81
59519;BME280;46994;54.976;73.404;2022-08-27T12:49:18;100864.50;;;17.38;44.59
59519;BME280;46994;54.976;73.404;2022-08-27T12:51:46;100847.81;;;17.28;46.85
59519;BME280;46994;54.976;73.404;2022-08-27T12:57:42;100857.41;;;17.24;45.50
59519;BME280;46994;54.976;73.404;2022-08-27T13:00:18;100880.31;;;17.28;46.32
59519;BME280;46994;54.976;73.404;2022-08-27T13:05:25;100852.34;;;17.01;44.56
59519;BME280;46994;54.976;73.404;2022-08-27T13:07:52;100880.72;;;17.18;44.15
59519;BME280;46994;54.976;73.404;2022-08-27T13:10:25;100857.34;;;16.98;44.05
59519;BME280;46994;54.976;73.404;2022-08-27T13:13:20;100884.00;;;17.01;44.46
59519;BME280;46994;54.976;73.404;2022-08-27T13:15:48;100898.56;;;16.93;44.55
59519;BME280;46994;54.976;73.404;2022-08-27T13:18:16;100854.34;;;16.73;45.67
59519;BME280;46994;54.976;73.404;2022-08-27T13:20:44;100886.00;;;16.79;44.94
59519;BME280;46994;54.976;73.404;2022-08-27T13:23:17;100886.41;;;16.76;45.95
59519;BME280;46994;54.976;73.404;2022-08-27T13:26:05;100912.91;;;16.87;44.67
59519;BME280;46994;54.976;73.404;2022-08-27T13:28:34;100881.91;;;16.55;44.88
59519;BME280;46994;54.976;73.404;2022-08-27T13:31:02;100899.41;;;16.59;45.59
59519;BME280;46994;54.976;73.404;2022-08-27T13:33:32;100881.66;;;16.50;44.74
59519;BME280;46994;54.976;73.404;2022-08-27T13:36:01;100919.63;;;16.63;49.55
59519;BME280;46994;54.976;73.404;2022-08-27T13:38:40;100901.00;;;16.47;47.37
59519;BME280;46994;54.976;73.404;2022-08-27T13:41:10;100906.63;;;16.45;46.00
59519;BME280;46994;54.976;73.404;2022-08-27T13:43:44;100918.91;;;16.48;45.40
59519;BME280;46994;54.976;73.404;2022-08-27T13:46:32;100937.03;;;16.47;46.26
59519;BME280;46994;54.976;73.404;2022-08-27T13:48:59;100931.34;;;16.35;45.74
59519;BME280;46994;54.976;73.404;2022-08-27T13:51:30;100938.63;;;16.35;46.62
59519;BME280;46994;54.976;73.404;2022-08-27T13:54:01;100920.81;;;16.19;47.60
59519;BME280;46994;54.976;73.404;2022-08-27T14:01:52;100955.31;;;16.17;47.09
59519;BME280;46994;54.976;73.404;2022-08-27T14:04:23;100924.78;;;15.95;47.04
59519;BME280;46994;54.976;73.404;2022-08-27T14:06:51;100957.34;;;16.09;50.19
59519;BME280;46994;54.976;73.404;2022-08-27T14:09:27;100967.13;;;16.10;49.33
59519;BME280;46994;54.976;73.404;2022-08-27T14:12:05;100962.25;;;15.98;47.70
59519;BME280;46994;54.976;73.404;2022-08-27T14:14:38;100956.59;;;15.93;48.93